aviador You're here:

KDTO Decoded Metar

DENTON in TX, USA
Report Time2017-06-27 04:53:00
UTC Time2017-06-27 05:11:25
Flight Rules vfr VFR
Wind140° at 04 kt
W.Decomp.*RWY 18: 2.9 kt HW 2.8 kt LCW
W.Rank140° ranks 5
Current wind is below 140° avg. (7.4)
Visibility9999 m
Phenomena:N/A
Clouds:N/A
Expected CloudBase > 800 ft AGL from Temp-Dew spread
CeilingNone
Temp24°C (ISA +10)
Dew Point22°C (89% RH)
QNH1018 hPa
Density Alt2,018 ft
Elevation643 ft
Report Wrong Elevation
Raw Report
METAR KDTO 270453Z AUTO 14004KT 10SM CLR 24/22 A3005 RMK AO2 SLP166
T02390217=

Extra information for KDTO:More info

Metar Taf Metar & Taf Last 4 Metars F.Rules Stats Wind Profile Meteogram Temp Stats Airport Information Weather charts Add Link Nearby VenuesMetar ALERT Operation Metar Decoded Social comments

AIRNAV info for KDTO